Time;durP1;ratioP1;P1;durP2;ratioP2;P2;SDS_P1;SDS_P2;PMS_P1;PMS_P2;Temp;Humidity;BMP_temperature;BMP_pressure;BME280_temperature;BME280_humidity;BME280_pressure;Samples;Min_cycle;Max_cycle;Signal;HPM_P1;HPM_P2
2023/06/28 00:00:38;;;;;;;1.70;1.00;;;16.30;10.50;;;;;;5133819;23;20315;-86
2023/06/28 00:03:13;;;;;;;;;;;16.40;41.50;;;;;;5178889;28;20042;-84
2023/06/28 00:05:47;;;;;;;1.27;1.20;;;16.40;1.00;;;;;;5184563;28;19957;-85
2023/06/28 00:08:18;;;;;;;1.13;1.00;;;16.40;1.00;;;;;;5140237;28;20043;-84
2023/06/28 00:10:50;;;;;;;2.55;1.10;;;16.40;1.00;;;;;;5124911;29;20043;-85
2023/06/28 00:13:22;;;;;;;1.75;0.80;;;16.40;1.00;;;;;;5124499;29;20047;-84
2023/06/28 00:15:53;;;;;;;1.00;1.00;;;16.40;1.00;;;;;;5124491;29;20028;-84
2023/06/28 00:18:30;;;;;;;1.05;0.95;;;16.40;1.00;;;;;;5140354;28;20029;-85
2023/06/28 00:21:02;;;;;;;1.20;1.10;;;16.40;1.00;;;;;;5124485;28;20317;-85
2023/06/28 00:23:34;;;;;;;0.98;0.98;;;16.40;1.00;;;;;;5124218;29;20341;-84
2023/06/28 00:29:34;;;;;;;0.85;0.85;;;16.30;1.00;;;;;;5172109;28;20224;-84
2023/06/28 00:32:06;;;;;;;1.00;1.00;;;16.30;1.00;;;;;;5127319;29;20040;-87
2023/06/28 00:34:37;;;;;;;0.98;0.95;;;16.40;1.00;;;;;;5127552;29;20037;-84
2023/06/28 00:37:09;;;;;;;1.55;1.20;;;16.30;1.00;;;;;;5126862;29;20036;-84
2023/06/28 00:39:47;;;;;;;1.15;1.05;;;16.30;1.00;;;;;;5127225;29;20033;-85
2023/06/28 00:42:18;;;;;;;1.38;0.85;;;16.30;1.00;;;;;;5127312;29;20039;-86
2023/06/28 00:44:52;;;;;;;2.75;1.77;;;16.30;1.00;;;;;;5126635;29;20043;-84
2023/06/28 00:47:25;;;;;;;1.67;1.10;;;16.30;1.00;;;;;;5126767;29;20037;-86
2023/06/28 00:50:03;;;;;;;2.17;1.25;;;16.30;1.00;;;;;;5143023;28;20051;-85
2023/06/28 00:52:35;;;;;;;0.93;0.93;;;16.30;1.00;;;;;;5126691;28;20032;-85
2023/06/28 00:55:09;;;;;;;1.27;1.17;;;16.30;1.00;;;;;;5126518;29;20040;-85
2023/06/28 00:57:40;;;;;;;2.40;1.25;;;16.40;1.00;;;;;;5126850;29;20029;-85
2023/06/28 01:00:12;;;;;;;1.60;1.08;;;16.30;1.00;;;;;;5126912;28;20039;-85
2023/06/28 01:02:44;;;;;;;0.90;0.90;;;16.40;1.00;;;;;;5126948;29;20033;-85
2023/06/28 01:05:20;;;;;;;1.25;1.05;;;16.40;1.00;;;;;;5149366;28;20037;-85
2023/06/28 01:07:56;;;;;;;1.67;1.00;;;16.40;1.00;;;;;;5133307;28;20055;-85
2023/06/28 01:10:28;;;;;;;0.98;0.98;;;16.50;1.00;;;;;;5158656;28;20029;-85
2023/06/28 01:13:03;;;;;;;1.60;1.35;;;16.40;1.00;;;;;;5126096;29;20041;-85
2023/06/28 01:15:34;;;;;;;;;;;16.50;1.00;;;;;;5159768;28;20039;-84
2023/06/28 01:18:05;;;;;;;3.20;0.98;;;16.40;1.00;;;;;;5158380;28;19903;-85
2023/06/28 01:20:39;;;;;;;0.90;0.90;;;16.40;1.00;;;;;;5158196;28;20032;-84
2023/06/28 01:23:11;;;;;;;;;;;16.40;1.00;;;;;;5158902;28;20222;-85
2023/06/28 01:25:45;;;;;;;0.70;0.70;;;16.30;1.00;;;;;;5158265;28;20093;-85
2023/06/28 01:28:19;;;;;;;1.05;0.90;;;16.30;1.00;;;;;;5159206;28;20043;-85
2023/06/28 01:30:52;;;;;;;;;;;16.30;1.00;;;;;;5159151;28;20029;-85
2023/06/28 01:33:24;;;;;;;2.88;1.13;;;16.30;1.00;;;;;;5158232;28;19907;-85
2023/06/28 01:35:59;;;;;;;0.82;0.82;;;16.20;1.00;;;;;;5158209;28;20055;-85
2023/06/28 01:38:33;;;;;;;1.33;1.00;;;16.20;1.00;;;;;;5158129;28;20348;-84
2023/06/28 01:41:06;;;;;;;1.10;1.10;;;16.20;1.00;;;;;;5157979;28;20037;-86
2023/06/28 01:43:41;;;;;;;0.93;0.90;;;16.20;1.00;;;;;;5124957;28;20029;-85
2023/06/28 01:46:13;;;;;;;1.25;1.15;;;16.20;1.00;;;;;;5158020;28;20033;-85
2023/06/28 01:48:45;;;;;;;0.70;0.70;;;16.10;1.00;;;;;;5141539;28;20051;-85
2023/06/28 01:51:17;;;;;;;1.92;1.33;;;16.10;1.00;;;;;;5156638;28;20042;-85
2023/06/28 01:53:48;;;;;;;1.27;1.10;;;16.20;1.00;;;;;;5157892;28;20043;-86
2023/06/28 01:56:23;;;;;;;1.00;1.00;;;16.20;1.00;;;;;;5141191;28;20036;-85
2023/06/28 01:58:57;;;;;;;1.10;1.10;;;16.10;1.00;;;;;;5157257;28;20032;-84
2023/06/28 02:01:31;;;;;;;1.00;1.00;;;16.20;1.00;;;;;;5157150;28;20037;-85
2023/06/28 02:04:24;;;;;;;1.25;1.15;;;16.10;1.00;;;;;;5166391;28;20027;-85
2023/06/28 02:06:59;;;;;;;1.38;1.25;;;16.10;1.00;;;;;;5157445;28;20036;-84
2023/06/28 02:09:31;;;;;;;2.47;1.20;;;16.10;1.00;;;;;;5157721;28;20039;-87
2023/06/28 02:12:03;;;;;;;0.80;0.80;;;16.10;1.00;;;;;;5125741;28;20361;-83
2023/06/28 02:14:39;;;;;;;1.08;1.00;;;16.10;1.00;;;;;;5111306;29;20045;-86
2023/06/28 02:17:15;;;;;;;2.42;1.23;;;16.00;1.00;;;;;;5144993;28;20036;-86
2023/06/28 02:19:47;;;;;;;1.30;1.20;;;16.00;1.00;;;;;;5163045;28;20348;-84
2023/06/28 02:22:19;;;;;;;0.90;0.90;;;16.10;1.00;;;;;;5166459;28;20040;-85
2023/06/28 02:24:50;;;;;;;1.02;1.02;;;16.10;1.00;;;;;;5130293;29;20029;-84
2023/06/28 02:27:22;;;;;;;0.88;0.88;;;16.10;1.00;;;;;;5130336;28;20034;-84
2023/06/28 02:29:58;;;;;;;0.90;0.90;;;16.10;1.00;;;;;;5125659;28;20327;-85
2023/06/28 02:32:30;;;;;;;1.00;1.00;;;16.00;1.00;;;;;;5158010;28;20032;-84
2023/06/28 02:35:01;;;;;;;0.85;0.85;;;15.90;99.90;;;;;;5157969;28;20042;-84
2023/06/28 02:37:33;;;;;;;1.25;1.10;;;15.70;1.00;;;;;;5162005;28;20035;-85
2023/06/28 02:40:10;;;;;;;1.17;1.00;;;15.60;1.00;;;;;;5130725;29;20039;-85
2023/06/28 02:42:43;;;;;;;2.20;1.75;;;15.50;99.90;;;;;;5161414;28;20047;-86
2023/06/28 02:45:15;;;;;;;1.30;1.20;;;15.30;1.00;;;;;;5127768;28;20043;-85
2023/06/28 02:47:46;;;;;;;0.80;0.80;;;15.30;1.00;;;;;;5158308;28;20348;-85
2023/06/28 02:50:34;;;;;;;1.50;0.90;;;15.30;1.00;;;;;;5158345;28;20032;-85
2023/06/28 02:53:14;;;;;;;1.20;1.10;;;15.40;1.00;;;;;;5154559;28;20036;-86
2023/06/28 02:55:48;;;;;;;1.02;1.02;;;15.50;1.00;;;;;;5156521;28;20028;-85
2023/06/28 02:58:19;;;;;;;;;;;15.60;1.00;;;;;;5141280;28;20037;-84
2023/06/28 03:00:51;;;;;;;1.20;1.00;;;15.60;1.00;;;;;;5140538;28;19915;-85
2023/06/28 03:03:26;;;;;;;1.65;1.33;;;15.60;1.00;;;;;;5140268;28;20322;-85
2023/06/28 03:06:00;;;;;;;1.65;1.55;;;15.60;1.00;;;;;;5166321;28;20042;-86
2023/06/28 03:08:31;;;;;;;1.65;1.02;;;15.50;1.00;;;;;;5124078;29;20029;-85
2023/06/28 03:11:04;;;;;;;0.80;0.80;;;15.50;99.90;;;;;;5172590;28;20037;-85
2023/06/28 03:13:36;;;;;;;2.92;1.08;;;15.40;99.90;;;;;;5123946;29;20044;-85
2023/06/28 03:16:08;;;;;;;1.05;1.05;;;15.40;1.00;;;;;;5156713;28;20036;-85
2023/06/28 03:18:44;;;;;;;1.10;1.00;;;15.30;1.00;;;;;;5125550;29;20029;-85
2023/06/28 03:21:16;;;;;;;1.63;1.52;;;15.30;1.00;;;;;;5126703;29;20037;-84
2023/06/28 03:23:47;;;;;;;1.30;1.20;;;15.20;97.90;;;;;;5124250;28;20042;-85
2023/06/28 03:26:24;;;;;;;1.63;1.20;;;15.20;99.90;;;;;;5124192;29;20033;-86
2023/06/28 03:28:58;;;;;;;1.00;0.90;;;15.10;99.90;;;;;;5123789;29;20043;-84
2023/06/28 03:31:37;;;;;;;2.60;1.20;;;15.10;99.90;;;;;;5124164;28;20043;-86
2023/06/28 03:34:11;;;;;;;1.38;1.27;;;15.10;1.00;;;;;;5124046;29;20104;-86
2023/06/28 03:36:43;;;;;;;1.40;1.30;;;15.00;1.00;;;;;;5124359;28;20029;-86
2023/06/28 03:39:14;;;;;;;1.45;1.35;;;15.00;1.00;;;;;;5123626;29;20317;-85
2023/06/28 03:41:48;;;;;;;1.50;1.40;;;15.00;1.00;;;;;;5123919;29;20235;-87
2023/06/28 03:44:20;;;;;;;1.50;1.40;;;15.00;90.40;;;;;;5123552;29;20041;-87
2023/06/28 03:46:52;;;;;;;1.20;1.10;;;14.80;99.90;;;;;;5124084;28;20039;-87
2023/06/28 03:49:24;;;;;;;1.40;1.30;;;14.70;1.00;;;;;;5124835;29;20043;-84
2023/06/28 03:51:57;;;;;;;1.27;1.17;;;14.50;1.00;;;;;;5128027;29;20033;-86
2023/06/28 03:54:28;;;;;;;2.50;1.20;;;14.40;1.00;;;;;;5139863;28;20047;-85
2023/06/28 03:57:00;;;;;;;1.30;1.20;;;14.30;1.00;;;;;;5124052;28;20221;-86
2023/06/28 03:59:31;;;;;;;1.60;1.50;;;14.30;1.00;;;;;;5123558;29;20349;-86
2023/06/28 04:02:05;;;;;;;1.20;1.10;;;14.20;1.00;;;;;;5123402;28;20063;-86
2023/06/28 04:04:39;;;;;;;1.58;1.48;;;14.20;1.00;;;;;;5164195;28;20030;-86
2023/06/28 04:07:13;;;;;;;2.17;1.50;;;14.20;1.00;;;;;;5139916;28;20337;-86
2023/06/28 04:09:45;;;;;;;1.33;1.23;;;14.10;1.00;;;;;;5111448;29;20049;-86
2023/06/28 04:12:17;;;;;;;1.13;1.13;;;14.00;1.00;;;;;;5127121;28;20310;-87
2023/06/28 04:14:54;;;;;;;1.42;1.33;;;14.00;1.00;;;;;;5159663;28;20033;-87
2023/06/28 04:17:28;;;;;;;1.42;1.33;;;13.90;1.00;;;;;;5110348;29;20043;-86
2023/06/28 04:20:00;;;;;;;1.52;1.42;;;13.80;1.00;;;;;;5159600;28;20028;-86
2023/06/28 04:22:32;;;;;;;1.13;1.02;;;13.80;1.00;;;;;;5159383;28;20043;-87
2023/06/28 04:25:09;;;;;;;2.92;1.40;;;13.70;51.90;;;;;;5159061;28;20042;-86
2023/06/28 04:27:41;;;;;;;1.67;1.33;;;13.60;99.90;;;;;;5158713;28;20124;-89
2023/06/28 04:30:15;;;;;;;1.98;1.48;;;13.50;99.90;;;;;;5143859;28;20036;-87
2023/06/28 04:32:53;;;;;;;1.27;1.17;;;13.40;99.90;;;;;;5115869;28;20043;-87
2023/06/28 04:35:27;;;;;;;1.40;1.30;;;13.40;99.90;;;;;;5176689;28;20032;-87
2023/06/28 04:38:13;;;;;;;1.92;1.52;;;13.30;99.90;;;;;;5075142;29;20032;-88
2023/06/28 04:40:47;;;;;;;1.20;1.10;;;13.30;99.90;;;;;;5058643;29;20231;-87
2023/06/28 04:43:24;;;;;;;1.23;1.13;;;13.30;99.90;;;;;;5045472;29;20052;-87
2023/06/28 04:46:02;;;;;;;1.15;1.08;;;13.20;99.90;;;;;;5059703;29;20124;-87
2023/06/28 04:48:34;;;;;;;1.40;1.30;;;13.20;99.90;;;;;;5058907;29;20045;-87
2023/06/28 04:51:12;;;;;;;1.23;1.20;;;13.20;99.90;;;;;;5075360;29;20036;-89
2023/06/28 04:53:53;;;;;;;1.50;1.40;;;13.20;99.90;;;;;;5041094;29;20036;-85
2023/06/28 04:56:29;;;;;;;0.95;0.90;;;13.20;99.90;;;;;;5042720;29;20239;-85
2023/06/28 04:59:07;;;;;;;1.40;1.30;;;13.20;99.90;;;;;;5058589;29;20028;-85
2023/06/28 05:01:41;;;;;;;1.45;1.20;;;13.30;99.90;;;;;;5094896;23;20054;-69
2023/06/28 05:04:12;;;;;;;1.50;1.20;;;13.30;99.90;;;;;;5140902;28;20035;-70
2023/06/28 05:06:46;;;;;;;1.73;1.60;;;13.40;99.90;;;;;;5196655;28;20031;-69
2023/06/28 05:09:18;;;;;;;1.40;1.30;;;13.40;99.90;;;;;;5186111;28;20050;-70
2023/06/28 05:11:52;;;;;;;1.40;1.30;;;13.50;99.90;;;;;;5120710;29;20034;-70
2023/06/28 05:14:27;;;;;;;1.33;1.23;;;13.60;2.70;;;;;;5120526;29;20046;-70
2023/06/28 05:17:01;;;;;;;1.15;1.13;;;13.70;1.00;;;;;;5181362;28;20035;-69
2023/06/28 05:19:35;;;;;;;1.25;1.15;;;13.60;1.00;;;;;;5121586;29;20035;-69
2023/06/28 05:22:06;;;;;;;1.25;1.23;;;13.60;1.00;;;;;;5120925;29;21051;-70
2023/06/28 05:24:39;;;;;;;1.30;1.20;;;13.60;1.00;;;;;;5187791;28;20045;-69
2023/06/28 05:27:11;;;;;;;0.98;0.98;;;13.60;1.00;;;;;;5168141;28;20031;-69
2023/06/28 05:29:42;;;;;;;1.05;1.05;;;13.70;1.00;;;;;;5188337;28;20070;-69
2023/06/28 05:32:16;;;;;;;1.00;1.00;;;13.70;1.00;;;;;;5200070;28;20030;-69
2023/06/28 05:34:49;;;;;;;0.80;0.80;;;13.80;1.00;;;;;;5120284;28;20023;-69
2023/06/28 05:37:20;;;;;;;0.98;0.98;;;14.00;1.00;;;;;;5122130;29;20035;-69
2023/06/28 05:39:57;;;;;;;0.70;0.70;;;14.20;1.00;;;;;;5118074;28;20404;-70
2023/06/28 05:42:31;;;;;;;1.00;0.90;;;14.50;99.90;;;;;;5121287;29;20019;-69
2023/06/28 05:45:03;;;;;;;1.00;1.00;;;14.90;99.90;;;;;;5121067;28;20043;-70
2023/06/28 05:47:37;;;;;;;0.88;0.88;;;15.10;99.90;;;;;;5118583;28;20042;-70
2023/06/28 05:50:10;;;;;;;1.00;1.00;;;15.30;99.90;;;;;;5122780;28;20380;-69
2023/06/28 05:52:44;;;;;;;0.90;0.90;;;15.50;1.00;;;;;;5123233;28;20357;-71
2023/06/28 05:55:16;;;;;;;1.35;1.20;;;15.80;1.00;;;;;;5140873;28;20061;-70
2023/06/28 05:57:50;;;;;;;0.93;0.90;;;16.10;99.90;;;;;;5130721;28;20045;-70
2023/06/28 06:00:22;;;;;;;0.88;0.88;;;16.10;99.90;;;;;;5118979;29;20027;-70
2023/06/28 06:02:57;;;;;;;1.30;1.20;;;16.10;99.90;;;;;;5121126;28;20049;-71
2023/06/28 06:05:28;;;;;;;;;;;15.90;1.00;;;;;;5193800;28;20059;-70
2023/06/28 06:08:02;;;;;;;1.00;1.00;;;16.00;71.60;;;;;;5157805;28;19915;-71
2023/06/28 06:10:35;;;;;;;0.90;0.90;;;16.20;1.00;;;;;;5140706;28;20035;-71
2023/06/28 06:13:07;;;;;;;1.17;1.08;;;16.30;1.00;;;;;;5122030;29;20039;-71
2023/06/28 06:15:38;;;;;;;0.70;0.70;;;16.20;96.70;;;;;;5118797;29;20043;-69
2023/06/28 06:18:09;;;;;;;1.48;0.73;;;16.20;1.00;;;;;;5186573;28;20220;-68
2023/06/28 06:20:41;;;;;;;0.93;0.93;;;16.30;1.00;;;;;;5115992;29;20033;-70
2023/06/28 06:23:13;;;;;;;1.45;1.08;;;16.20;1.00;;;;;;5119410;28;20441;-69
2023/06/28 06:25:44;;;;;;;1.00;0.88;;;16.20;1.00;;;;;;5116397;28;20039;-69
2023/06/28 06:28:16;;;;;;;0.75;0.75;;;16.10;1.00;;;;;;5165926;28;20073;-71
2023/06/28 06:30:47;;;;;;;1.05;1.05;;;16.20;1.00;;;;;;5117777;28;20054;-69
2023/06/28 06:33:21;;;;;;;1.15;1.05;;;16.20;99.90;;;;;;5190431;28;20027;-71
2023/06/28 06:35:57;;;;;;;1.30;1.00;;;16.40;99.90;;;;;;5202560;28;20539;-69
2023/06/28 06:38:28;;;;;;;1.02;1.00;;;16.60;1.00;;;;;;5190583;28;20050;-72
2023/06/28 06:41:00;;;;;;;0.70;0.70;;;16.80;1.00;;;;;;5121216;29;20243;-70
2023/06/28 06:43:36;;;;;;;1.00;1.00;;;16.90;1.00;;;;;;5191241;28;20027;-71
2023/06/28 06:46:10;;;;;;;1.00;1.00;;;17.00;1.00;;;;;;5217962;28;20033;-69
2023/06/28 06:48:41;;;;;;;0.90;0.90;;;17.20;1.00;;;;;;5121596;29;20042;-70
2023/06/28 06:51:12;;;;;;;0.90;0.90;;;17.30;1.00;;;;;;5187020;28;20038;-70
2023/06/28 06:53:44;;;;;;;1.23;0.82;;;17.50;1.00;;;;;;5122007;28;20043;-71
2023/06/28 06:56:25;;;;;;;0.80;0.80;;;17.90;99.90;;;;;;5185148;28;20039;-71
2023/06/28 06:59:00;;;;;;;0.80;0.80;;;17.90;1.00;;;;;;5132623;28;20046;-71
2023/06/28 07:01:34;;;;;;;1.10;0.95;;;17.90;1.00;;;;;;5146311;28;20039;-70
2023/06/28 07:04:05;;;;;;;0.70;0.70;;;18.30;1.00;;;;;;5120543;29;20035;-72
2023/06/28 07:06:44;;;;;;;0.90;0.90;;;18.40;99.90;;;;;;5128836;28;20449;-69
2023/06/28 07:09:24;;;;;;;0.80;0.80;;;18.60;99.90;;;;;;5123846;28;20022;-70
2023/06/28 07:11:58;;;;;;;0.60;0.60;;;18.70;1.00;;;;;;5140712;28;20035;-69
2023/06/28 07:14:32;;;;;;;0.63;0.63;;;18.60;1.00;;;;;;5123119;28;20446;-70
2023/06/28 07:17:03;;;;;;;0.80;0.80;;;18.80;1.00;;;;;;5138011;28;20041;-70
2023/06/28 07:19:36;;;;;;;1.33;0.85;;;18.60;1.00;;;;;;5140095;28;20048;-70
2023/06/28 07:22:07;;;;;;;1.05;0.88;;;18.50;99.90;;;;;;5140191;28;20038;-70
2023/06/28 07:24:39;;;;;;;0.73;0.73;;;18.40;99.90;;;;;;5138370;28;20365;-70
2023/06/28 07:27:18;;;;;;;0.80;0.80;;;18.30;99.90;;;;;;5123590;28;20031;-70
2023/06/28 07:29:50;;;;;;;1.25;0.82;;;18.70;99.90;;;;;;5139722;28;20037;-71
2023/06/28 07:32:26;;;;;;;0.93;0.90;;;18.80;1.00;;;;;;5152240;28;20046;-70
2023/06/28 07:34:58;;;;;;;0.98;0.85;;;19.20;1.00;;;;;;5133340;28;20023;-70
2023/06/28 07:37:30;;;;;;;0.85;0.70;;;19.30;99.90;;;;;;5139641;28;20400;-70
2023/06/28 07:40:01;;;;;;;2.63;0.70;;;19.10;99.90;;;;;;5150299;28;20024;-70
2023/06/28 07:42:32;;;;;;;0.80;0.80;;;19.20;1.00;;;;;;5113283;28;20597;-69
2023/06/28 07:45:04;;;;;;;0.50;0.50;;;19.30;1.00;;;;;;5143825;28;20027;-72
2023/06/28 07:47:36;;;;;;;0.88;0.88;;;19.40;1.00;;;;;;5142333;28;20428;-71
2023/06/28 07:50:11;;;;;;;0.80;0.80;;;19.50;1.00;;;;;;5142836;28;20363;-70
2023/06/28 07:52:45;;;;;;;0.80;0.80;;;19.50;1.00;;;;;;5142648;28;20037;-70
2023/06/28 07:55:19;;;;;;;1.08;1.08;;;19.70;1.00;;;;;;5142284;28;20035;-70
2023/06/28 07:57:51;;;;;;;0.73;0.73;;;20.00;1.00;;;;;;5142511;28;20037;-71
2023/06/28 08:00:28;;;;;;;0.50;0.50;;;20.00;1.00;;;;;;5139953;28;20023;-70
2023/06/28 08:03:01;;;;;;;0.88;0.88;;;20.00;99.90;;;;;;5214375;28;20044;-70
2023/06/28 08:05:35;;;;;;;0.70;0.70;;;20.20;1.00;;;;;;5132636;28;20058;-70
2023/06/28 08:08:07;;;;;;;0.80;0.80;;;20.10;1.00;;;;;;5143525;28;20022;-71
2023/06/28 08:10:41;;;;;;;0.82;0.82;;;20.10;1.00;;;;;;5139958;28;20418;-71
2023/06/28 08:13:14;;;;;;;0.95;0.95;;;20.40;1.00;;;;;;5143198;28;20369;-71
2023/06/28 08:15:51;;;;;;;0.90;0.90;;;20.10;99.90;;;;;;5139468;28;20533;-70
2023/06/28 08:18:26;;;;;;;0.60;0.60;;;19.90;99.90;;;;;;5144451;28;20332;-71
2023/06/28 08:21:00;;;;;;;;;;;19.80;99.90;;;;;;5142418;28;20052;-70
2023/06/28 08:23:31;;;;;;;0.80;0.80;;;19.80;1.00;;;;;;5206053;28;19917;-71
2023/06/28 08:26:02;;;;;;;0.77;0.77;;;19.80;1.00;;;;;;5116236;28;20031;-71
2023/06/28 08:28:33;;;;;;;0.80;0.80;;;19.80;99.90;;;;;;5147654;28;20030;-71
2023/06/28 08:31:05;;;;;;;0.60;0.60;;;19.80;99.90;;;;;;5153544;28;20678;-71
2023/06/28 08:33:38;;;;;;;0.90;0.90;;;19.90;99.90;;;;;;5240940;28;20033;-70
2023/06/28 08:36:10;;;;;;;0.70;0.70;;;20.20;99.90;;;;;;5210309;28;20084;-70
2023/06/28 08:38:46;;;;;;;0.73;0.73;;;20.40;99.90;;;;;;5106208;29;20362;-71
2023/06/28 08:41:21;;;;;;;0.80;0.70;;;20.20;10.30;;;;;;5111863;28;20410;-71
2023/06/28 08:43:55;;;;;;;;;;;20.30;1.00;;;;;;5121390;29;20046;-70
2023/06/28 08:46:29;;;;;;;0.88;0.82;;;20.40;1.00;;;;;;5112435;28;20146;-70
2023/06/28 08:49:04;;;;;;;1.58;1.13;;;20.70;15.50;;;;;;5139098;28;20069;-70
2023/06/28 08:51:35;;;;;;;1.30;0.77;;;20.60;1.00;;;;;;5133746;28;20035;-70
2023/06/28 08:54:09;;;;;;;0.80;0.80;;;20.50;1.00;;;;;;5138585;28;20038;-70
2023/06/28 08:56:45;;;;;;;0.60;0.60;;;20.70;1.00;;;;;;5114892;28;20373;-72
2023/06/28 08:59:16;;;;;;;0.90;0.90;;;20.80;1.00;;;;;;5169913;28;20037;-72
2023/06/28 09:01:50;;;;;;;0.70;0.70;;;20.90;1.00;;;;;;5150011;28;20033;-71
2023/06/28 09:04:29;;;;;;;0.80;0.70;;;21.20;1.00;;;;;;5145866;28;20035;-70
2023/06/28 09:07:04;;;;;;;1.05;0.95;;;21.20;1.00;;;;;;5140980;28;20396;-71
2023/06/28 09:09:35;;;;;;;;;;;20.90;1.00;;;;;;5142160;28;20022;-71
2023/06/28 09:12:07;;;;;;;1.08;1.00;;;20.50;1.00;;;;;;5131268;28;19918;-71
2023/06/28 09:14:42;;;;;;;1.00;0.90;;;21.00;1.00;;;;;;5141318;28;20022;-71
2023/06/28 09:17:18;;;;;;;1.17;1.08;;;21.50;1.00;;;;;;5182477;28;20047;-72
2023/06/28 09:19:53;;;;;;;1.20;1.10;;;22.00;1.00;;;;;;5121225;29;20035;-70
2023/06/28 09:22:24;;;;;;;3.38;1.00;;;21.80;1.00;;;;;;5110015;28;20039;-71
2023/06/28 09:25:01;;;;;;;0.90;0.90;;;21.90;1.00;;;;;;5096738;29;20373;-70
2023/06/28 09:27:32;;;;;;;2.58;0.90;;;22.20;1.00;;;;;;5128678;28;20588;-71
2023/06/28 09:30:04;;;;;;;1.38;0.60;;;22.50;1.00;;;;;;5115403;28;20547;-71
2023/06/28 09:32:41;;;;;;;0.80;0.80;;;22.10;1.00;;;;;;5103497;28;20031;-71
2023/06/28 09:35:15;;;;;;;1.73;1.20;;;22.10;99.90;;;;;;5112562;29;20058;-70
2023/06/28 09:37:54;;;;;;;0.70;0.70;;;22.00;99.90;;;;;;5119549;28;20037;-72
2023/06/28 09:40:37;;;;;;;1.13;1.00;;;22.10;99.90;;;;;;5128277;28;20031;-71
2023/06/28 09:43:15;;;;;;;1.45;0.90;;;22.70;1.00;;;;;;5100316;29;20036;-71
2023/06/28 09:45:54;;;;;;;0.80;0.80;;;22.70;99.90;;;;;;5097457;29;20053;-72
2023/06/28 09:48:26;;;;;;;1.38;0.90;;;23.00;99.90;;;;;;5102573;29;20107;-72
2023/06/28 09:51:04;;;;;;;0.73;0.70;;;22.40;99.90;;;;;;5109762;28;20031;-70
2023/06/28 09:53:49;;;;;;;1.30;0.75;;;22.40;99.90;;;;;;5121203;29;20039;-72
2023/06/28 09:56:32;;;;;;;1.08;0.88;;;22.50;99.90;;;;;;5121101;29;20023;-70
2023/06/28 09:59:10;;;;;;;2.75;0.90;;;23.10;99.90;;;;;;5097813;29;20035;-70
2023/06/28 10:01:50;;;;;;;0.80;0.80;;;23.40;99.90;;;;;;5131422;28;20046;-70
2023/06/28 10:04:21;;;;;;;1.10;1.00;;;23.50;99.90;;;;;;5098377;28;20038;-71
2023/06/28 10:06:58;;;;;;;0.80;0.68;;;23.80;99.90;;;;;;5194653;28;21079;-72
2023/06/28 10:09:37;;;;;;;0.88;0.88;;;23.70;1.00;;;;;;5102334;29;20035;-71
2023/06/28 10:12:16;;;;;;;1.13;0.80;;;23.60;1.00;;;;;;5208137;28;20051;-70
2023/06/28 10:15:11;;;;;;;0.93;0.93;;;23.70;1.00;;;;;;5118357;28;20329;-71
2023/06/28 10:17:43;;;;;;;0.95;0.88;;;23.80;1.00;;;;;;5219947;28;20047;-72
2023/06/28 10:20:14;;;;;;;1.35;1.10;;;23.40;1.00;;;;;;5186890;28;20541;-71
2023/06/28 10:22:46;;;;;;;1.25;1.00;;;23.00;1.00;;;;;;5218278;28;20049;-71
2023/06/28 10:25:18;;;;;;;0.80;0.80;;;23.60;1.00;;;;;;5122795;28;20035;-71
2023/06/28 10:27:51;;;;;;;1.67;1.25;;;23.30;1.00;;;;;;5122912;28;20365;-70
2023/06/28 10:30:24;;;;;;;1.17;1.08;;;22.90;1.00;;;;;;5115253;29;20034;-72
2023/06/28 10:32:57;;;;;;;0.98;0.88;;;23.60;1.00;;;;;;5162141;28;20026;-72
2023/06/28 10:35:31;;;;;;;1.15;1.10;;;24.30;1.00;;;;;;5119686;29;20043;-72
2023/06/28 10:38:05;;;;;;;1.25;1.10;;;24.00;1.00;;;;;;5120645;29;20043;-70
2023/06/28 10:40:39;;;;;;;0.70;0.70;;;23.70;1.00;;;;;;5186826;28;20035;-72
2023/06/28 10:43:25;;;;;;;0.80;0.80;;;24.40;1.00;;;;;;5121062;29;20038;-71
2023/06/28 10:45:56;;;;;;;1.48;0.88;;;24.80;1.00;;;;;;5184618;28;20047;-71
2023/06/28 10:48:32;;;;;;;0.70;0.70;;;25.20;1.00;;;;;;5121036;28;20465;-70
2023/06/28 10:51:05;;;;;;;0.75;0.75;;;25.10;1.00;;;;;;5121721;29;20024;-71
2023/06/28 10:53:39;;;;;;;0.90;0.90;;;25.90;1.00;;;;;;5122599;28;20192;-70
2023/06/28 10:56:12;;;;;;;0.87;0.87;;;26.00;1.00;;;;;;5168960;28;20113;-70
2023/06/28 10:58:47;;;;;;;0.77;0.77;;;25.90;1.00;;;;;;5204805;28;20053;-70
2023/06/28 11:01:38;;;;;;;0.88;0.85;;;26.10;1.00;;;;;;5122336;28;20027;-70
2023/06/28 11:04:22;;;;;;;2.33;0.80;;;27.20;1.00;;;;;;5121424;29;20027;-70
2023/06/28 11:07:02;;;;;;;1.23;0.87;;;28.10;1.00;;;;;;5181437;28;20048;-70
2023/06/28 11:09:34;;;;;;;0.80;0.80;;;28.10;1.00;;;;;;5224526;28;20020;-70
2023/06/28 11:12:12;;;;;;;1.35;1.00;;;26.70;1.00;;;;;;5208214;28;20039;-70
2023/06/28 11:14:43;;;;;;;0.82;0.82;;;26.60;1.00;;;;;;5205109;28;20222;-70
2023/06/28 11:17:15;;;;;;;0.75;0.75;;;26.30;1.00;;;;;;5222672;28;20041;-70
2023/06/28 11:19:46;;;;;;;2.05;0.98;;;26.10;1.00;;;;;;5224070;28;20033;-70
2023/06/28 11:22:19;;;;;;;0.73;0.73;;;26.90;1.00;;;;;;5224333;28;20021;-71
2023/06/28 11:24:57;;;;;;;0.98;0.77;;;26.80;1.00;;;;;;5206667;28;20035;-72
2023/06/28 11:27:41;;;;;;;0.80;0.80;;;26.80;1.00;;;;;;5215482;28;20028;-70
2023/06/28 11:30:14;;;;;;;0.70;0.70;;;27.40;1.00;;;;;;5226458;28;20036;-71
2023/06/28 11:32:45;;;;;;;0.70;0.70;;;27.60;1.00;;;;;;5198221;28;20336;-70
2023/06/28 11:35:25;;;;;;;0.98;0.85;;;27.10;36.90;;;;;;5224373;28;20349;-70
2023/06/28 11:37:56;;;;;;;0.88;0.80;;;27.50;6.20;;;;;;5215834;28;20455;-71
2023/06/28 11:40:28;;;;;;;0.80;0.80;;;27.30;1.00;;;;;;5224754;28;20028;-70
2023/06/28 11:42:59;;;;;;;1.13;0.60;;;27.60;1.00;;;;;;5225259;28;20033;-71
2023/06/28 11:45:32;;;;;;;0.70;0.70;;;27.50;99.90;;;;;;5220244;28;20040;-71
2023/06/28 11:48:04;;;;;;;2.58;0.90;;;28.80;99.90;;;;;;5206157;28;20033;-70
2023/06/28 11:50:36;;;;;;;1.75;1.65;;;28.70;99.90;;;;;;5223246;28;20028;-70
2023/06/28 11:53:08;;;;;;;1.58;1.08;;;28.60;99.90;;;;;;5222959;28;20037;-71
2023/06/28 11:55:39;;;;;;;0.70;0.70;;;28.80;99.90;;;;;;5224759;28;20051;-71
2023/06/28 11:58:11;;;;;;;1.05;0.88;;;29.00;99.90;;;;;;5223662;28;20029;-70
2023/06/28 12:00:45;;;;;;;0.65;0.65;;;29.90;99.90;;;;;;5221111;28;20025;-70
2023/06/28 12:03:28;;;;;;;;;;;29.20;99.90;;;;;;5223788;28;20033;-72
2023/06/28 12:06:02;;;;;;;0.80;0.75;;;28.60;99.90;;;;;;5224658;28;20316;-70
2023/06/28 12:08:39;;;;;;;0.70;0.70;;;27.70;58.20;;;;;;5170061;28;20488;-70
2023/06/28 12:11:14;;;;;;;1.23;0.80;;;27.80;99.90;;;;;;5120587;29;20035;-71
2023/06/28 12:13:46;;;;;;;1.00;0.90;;;27.50;99.90;;;;;;5186639;28;20501;-70
2023/06/28 12:16:21;;;;;;;2.00;0.77;;;28.00;99.90;;;;;;5135184;28;20295;-71
2023/06/28 12:18:58;;;;;;;0.70;0.70;;;28.20;99.90;;;;;;5157035;28;20046;-71
2023/06/28 12:21:30;;;;;;;0.60;0.60;;;29.00;99.90;;;;;;5160701;28;20524;-70
2023/06/28 12:24:15;;;;;;;1.25;1.00;;;28.20;99.90;;;;;;5138908;28;20035;-71
2023/06/28 12:27:00;;;;;;;0.90;0.90;;;27.20;1.00;;;;;;5125116;28;20605;-71
2023/06/28 12:29:35;;;;;;;0.80;0.80;;;25.60;1.00;;;;;;5214012;28;20030;-71
2023/06/28 12:32:10;;;;;;;;;;;24.60;1.00;;;;;;5169304;28;20221;-71
2023/06/28 12:34:52;;;;;;;1.00;0.90;;;24.00;1.00;;;;;;5234722;28;19906;-71
2023/06/28 12:37:35;;;;;;;2.05;0.80;;;23.30;1.00;;;;;;5142385;28;20031;-71
2023/06/28 12:40:08;;;;;;;1.10;1.00;;;22.80;1.00;;;;;;5141838;28;20027;-72
2023/06/28 12:42:39;;;;;;;1.30;1.20;;;22.20;1.00;;;;;;5156424;28;20043;-71
2023/06/28 12:45:12;;;;;;;1.15;1.10;;;21.50;1.00;;;;;;5140620;28;20533;-71
2023/06/28 12:47:46;;;;;;;1.42;1.30;;;21.10;1.00;;;;;;5142628;28;20030;-72
2023/06/28 12:50:20;;;;;;;0.83;0.83;;;20.90;1.00;;;;;;5180756;28;20022;-71
2023/06/28 12:52:51;;;;;;;1.48;1.38;;;20.50;1.00;;;;;;5249078;28;20034;-72
2023/06/28 12:55:22;;;;;;;3.65;1.70;;;20.00;23.10;;;;;;5151041;28;20038;-71
2023/06/28 12:57:54;;;;;;;1.17;1.17;;;19.70;1.00;;;;;;5134192;28;20031;-70
2023/06/28 13:00:25;;;;;;;1.45;1.35;;;19.60;99.90;;;;;;5152156;28;20033;-72
2023/06/28 13:02:59;;;;;;;1.55;1.20;;;19.60;99.90;;;;;;5143266;28;20050;-72
2023/06/28 13:05:35;;;;;;;1.40;1.10;;;19.80;1.00;;;;;;5141000;28;20058;-71
2023/06/28 13:08:11;;;;;;;1.00;1.00;;;20.00;1.00;;;;;;5147928;28;20044;-71
2023/06/28 13:10:44;;;;;;;1.38;1.27;;;20.30;1.00;;;;;;5126797;28;20022;-71
2023/06/28 13:13:18;;;;;;;1.52;0.95;;;20.30;10.20;;;;;;5127050;28;20037;-72
2023/06/28 13:15:51;;;;;;;1.10;0.90;;;20.60;99.90;;;;;;5139678;28;20038;-71
2023/06/28 13:18:24;;;;;;;1.00;0.90;;;22.90;1.00;;;;;;5142995;28;20035;-70
2023/06/28 13:20:55;;;;;;;0.80;0.80;;;26.10;1.00;;;;;;5142242;28;20626;-71
2023/06/28 13:23:29;;;;;;;1.25;1.00;;;27.70;1.00;;;;;;5125533;28;20832;-70
2023/06/28 13:26:04;;;;;;;1.50;1.02;;;28.70;1.00;;;;;;5202308;28;20032;-70
2023/06/28 13:28:36;;;;;;;1.00;0.90;;;27.80;1.00;;;;;;5174835;28;20315;-70
2023/06/28 13:31:09;;;;;;;0.70;0.70;;;26.80;1.00;;;;;;5142965;28;20042;-70
2023/06/28 13:33:40;;;;;;;1.13;1.02;;;24.80;1.00;;;;;;5150534;28;20105;-71
2023/06/28 13:36:12;;;;;;;1.23;1.13;;;24.20;1.00;;;;;;5141215;28;20045;-71